Time;durP1;ratioP1;P1;durP2;ratioP2;P2;SDS_P1;SDS_P2;PMS_P1;PMS_P2;Temp;Humidity;BMP_temperature;BMP_pressure;BME280_temperature;BME280_humidity;BME280_pressure;Samples;Min_cycle;Max_cycle;Signal;HPM_P1;HPM_P2
2022/01/23 00:01:48;;;;;;;49.28;32.35;;;;;;;5.83;80.08;103098.22;5034984;28;20057;-62
2022/01/23 00:04:16;;;;;;;53.17;31.83;;;;;;;5.75;79.70;103107.53;5044337;28;20064;-64
2022/01/23 00:06:46;;;;;;;41.92;30.55;;;;;;;5.80;79.58;103102.22;5043542;28;20552;-61
2022/01/23 00:09:15;;;;;;;45.88;31.35;;;;;;;5.90;79.06;103110.78;5028514;28;20037;-62
2022/01/23 00:11:49;;;;;;;44.67;31.75;;;;;;;6.24;78.16;103101.19;5046799;28;20057;-61
2022/01/23 00:17:17;;;;;;;48.33;32.88;;;;;;;5.94;77.45;103103.81;5039883;28;20064;-64
2022/01/23 00:19:53;;;;;;;46.83;32.58;;;;;;;5.93;78.42;103099.38;5073005;28;20049;-61
2022/01/23 00:22:23;;;;;;;53.47;33.78;;;;;;;6.09;78.46;103095.22;5035122;28;20423;-62
2022/01/23 00:30:28;;;;;;;51.78;34.95;;;;;;;5.85;79.32;103091.47;5066444;28;20088;-63
2022/01/23 00:33:00;;;;;;;58.10;36.33;;;;;;;5.98;78.43;103094.06;5064194;28;20053;-63
2022/01/23 00:35:29;;;;;;;46.60;32.22;;;;;;;5.89;78.24;103081.78;5044234;28;20056;-62
2022/01/23 00:37:57;;;;;;;49.58;32.70;;;;;;;6.06;78.84;103079.28;5032224;28;20049;-63
2022/01/23 00:40:26;;;;;;;49.85;33.13;;;;;;;5.92;78.19;103077.72;5019126;28;20053;-63
2022/01/23 00:42:54;;;;;;;50.47;33.17;;;;;;;5.83;78.32;103076.34;5032560;28;20053;-60
2022/01/23 00:45:41;;;;;;;49.90;34.20;;;;;;;5.54;79.53;103072.38;5013338;28;20711;-63
2022/01/23 00:48:10;;;;;;;54.38;34.22;;;;;;;5.38;80.45;103076.50;5027332;28;20061;-60
2022/01/23 00:50:44;;;;;;;48.75;33.38;;;;;;;5.33;81.14;103080.94;5030198;28;20054;-59
2022/01/23 00:53:13;;;;;;;52.17;33.53;;;;;;;5.29;81.28;103080.53;5047896;28;20054;-60
2022/01/23 00:55:42;;;;;;;50.42;33.15;;;;;;;5.36;81.03;103073.13;5036728;28;20505;-60
2022/01/23 00:58:10;;;;;;;52.42;33.67;;;;;;;5.38;80.99;103072.91;5035883;28;20049;-61
2022/01/23 01:00:38;;;;;;;56.47;34.80;;;;;;;5.30;81.49;103067.72;5016606;28;20045;-61
2022/01/23 01:03:06;;;;;;;49.50;33.20;;;;;;;5.77;80.45;103069.03;5029904;28;20058;-61
2022/01/23 01:05:34;;;;;;;49.63;33.10;;;;;;;5.69;79.56;103067.41;5022632;28;20049;-61
2022/01/23 01:08:04;;;;;;;49.40;32.65;;;;;;;6.02;78.65;103058.91;5053334;28;20423;-60
2022/01/23 01:10:41;;;;;;;50.85;32.55;;;;;;;5.88;78.22;103073.75;5070817;28;20616;-61
2022/01/23 01:13:12;;;;;;;52.88;33.08;;;;;;;5.69;79.82;103064.66;5032902;28;20045;-61
2022/01/23 01:16:00;;;;;;;48.42;30.98;;;;;;;5.90;78.42;103066.19;5045576;28;20053;-60
2022/01/23 01:32:29;;;;;;;49.65;32.50;;;;;;;5.36;79.98;103062.22;5037174;28;20053;-61
2022/01/23 01:35:06;;;;;;;51.42;31.45;;;;;;;5.46;80.33;103062.53;5033117;28;20057;-59
2022/01/23 01:37:33;;;;;;;58.15;32.05;;;;;;;5.29;81.11;103063.31;5038339;28;20048;-60
2022/01/23 01:40:00;;;;;;;47.78;30.58;;;;;;;5.64;79.88;103057.16;5045762;28;20049;-60
2022/01/23 01:42:29;;;;;;;47.63;30.05;;;;;;;5.83;78.87;103058.03;5032763;28;20516;-61
2022/01/23 01:45:06;;;;;;;50.80;31.40;;;;;;;5.97;78.27;103053.28;5049884;28;20048;-60
2022/01/23 01:47:51;;;;;;;48.85;31.15;;;;;;;5.94;78.11;103057.31;5035278;28;20054;-61
2022/01/23 01:50:19;;;;;;;46.85;30.35;;;;;;;6.10;77.71;103053.16;5015894;28;20089;-61
2022/01/23 01:52:47;;;;;;;43.90;29.98;;;;;;;5.99;77.38;103056.63;5049570;28;20420;-62
2022/01/23 01:55:22;;;;;;;48.78;29.83;;;;;;;5.80;78.17;103057.63;5033055;28;20404;-63
2022/01/23 01:57:56;;;;;;;45.90;28.95;;;;;;;5.94;77.71;103059.19;5034035;28;20401;-62
2022/01/23 02:00:57;;;;;;;40.80;26.92;;;;;;;5.44;78.97;103050.19;5040203;28;20053;-63
2022/01/23 02:09:07;;;;;;;42.80;27.10;;;;;;;5.58;79.41;103054.44;5073166;28;20048;-62
2022/01/23 02:12:35;;;;;;;45.10;27.55;;;;;;;5.37;79.54;103063.06;5057689;28;20075;-63
2022/01/23 02:14:36;;;;;;;45.58;27.80;;;;;;;5.03;80.88;103055.28;5057796;28;20057;-62
2022/01/23 02:17:28;;;;;;;44.23;28.43;;;;;;;5.05;81.34;103050.44;5031033;28;20057;-63
2022/01/23 02:23:10;;;;;;;46.80;27.45;;;;;;;5.33;79.93;103050.88;5037662;28;20068;-65
2022/01/23 02:50:37;;;;;;;40.70;26.67;;;;;;;5.22;81.10;103046.97;5035636;28;20057;-62
2022/01/23 02:51:03;;;;;;;35.63;22.35;;;;;;;5.37;78.59;103022.88;5040835;28;20041;-61
2022/01/23 02:54:05;;;;;;;35.92;21.98;;;;;;;5.36;78.83;103023.09;5053449;28;20638;-62
2022/01/23 02:56:34;;;;;;;31.98;20.63;;;;;;;5.51;77.94;103018.13;5052551;28;20626;-63
2022/01/23 03:02:41;;;;;;;35.75;21.08;;;;;;;5.29;78.23;103008.66;5017168;28;20412;-62
2022/01/23 03:05:35;;;;;;;33.42;21.13;;;;;;;5.47;78.45;103008.72;5036318;28;20061;-62
2022/01/23 03:08:26;;;;;;;37.45;22.00;;;;;;;5.42;78.42;103008.56;5073192;28;20056;-62
2022/01/23 03:11:10;;;;;;;32.08;20.35;;;;;;;5.83;77.65;102997.03;5039487;28;20060;-61
2022/01/23 03:13:47;;;;;;;32.15;21.23;;;;;;;5.08;78.72;102998.94;5036914;28;20054;-63
2022/01/23 03:30:25;;;;;;;38.20;24.00;;;;;;;5.46;77.55;102999.69;5031928;28;20050;-62
2022/01/23 03:32:53;;;;;;;37.20;23.45;;;;;;;5.66;77.32;102999.50;5048601;28;20058;-60
2022/01/23 03:35:22;;;;;;;36.25;24.20;;;;;;;5.75;77.08;102995.41;5032139;28;20030;-60
2022/01/23 03:37:50;;;;;;;38.05;24.90;;;;;;;5.37;77.41;102989.28;5016538;28;20053;-61
2022/01/23 03:40:18;;;;;;;38.83;25.02;;;;;;;5.48;78.15;102996.72;5029884;28;20057;-60
2022/01/23 03:42:47;;;;;;;39.97;25.58;;;;;;;5.43;78.14;102993.81;5036043;28;20056;-61
2022/01/23 03:50:47;;;;;;;41.78;26.50;;;;;;;5.35;78.10;102992.19;5044747;28;20507;-62
2022/01/23 03:53:28;;;;;;;38.67;23.55;;;;;;;5.48;78.42;102989.38;5037833;28;20052;-61
2022/01/23 03:55:56;;;;;;;38.30;23.55;;;;;;;5.44;77.38;102990.88;5034415;28;20045;-61
2022/01/23 03:58:23;;;;;;;35.13;22.38;;;;;;;5.53;77.45;102995.00;5028468;28;20061;-60
2022/01/23 04:00:50;;;;;;;34.83;23.33;;;;;;;5.59;76.94;102987.78;5031577;28;20057;-61
2022/01/23 04:03:19;;;;;;;37.97;23.25;;;;;;;5.60;76.74;102990.31;5036489;28;20045;-61
2022/01/23 04:05:47;;;;;;;37.67;22.83;;;;;;;5.70;76.16;102987.88;5041297;28;20044;-63
2022/01/23 04:08:16;;;;;;;39.13;23.17;;;;;;;5.81;75.66;102990.91;5052621;28;20064;-61
2022/01/23 04:10:44;;;;;;;35.45;22.35;;;;;;;5.73;76.37;102986.59;5035019;28;20057;-62
2022/01/23 04:19:04;;;;;;;44.17;23.65;;;;;;;5.51;77.08;102972.50;5067149;28;20053;-61
2022/01/23 04:34:57;;;;;;;41.17;23.83;;;;;;;5.48;78.17;102988.53;5066984;28;20053;-59
2022/01/23 04:45:52;;;;;;;43.22;25.75;;;;;;;5.16;80.61;102981.47;5050493;28;20053;-62
2022/01/23 04:59:45;;;;;;;36.50;22.00;;;;;;;5.57;77.44;102974.34;5075499;28;20806;-61
2022/01/23 05:05:18;;;;;;;36.85;23.08;;;;;;;5.77;76.44;102976.88;5051404;28;20662;-62
2022/01/23 05:08:04;;;;;;;37.53;24.23;;;;;;;5.42;77.08;102983.97;5053373;28;20049;-57
2022/01/23 05:10:58;;;;;;;39.53;24.98;;;;;;;5.28;78.69;102985.16;5050164;28;20057;-61
2022/01/23 05:13:48;;;;;;;39.20;23.48;;;;;;;5.53;77.98;102983.22;5070262;28;20056;-60
2022/01/23 05:16:15;;;;;;;40.50;23.00;;;;;;;5.54;77.60;102985.72;5085968;28;20048;-59
2022/01/23 05:18:43;;;;;;;38.85;23.65;;;;;;;5.09;79.23;102972.47;5053823;28;20054;-60
2022/01/23 05:22:07;;;;;;;35.92;22.52;;;;;;;5.38;78.44;102986.31;5030205;28;20065;-61
2022/01/23 05:24:01;;;;;;;40.53;24.02;;;;;;;5.45;78.00;102986.25;5028684;28;20062;-59
2022/01/23 05:26:28;;;;;;;44.63;24.38;;;;;;;5.48;77.68;102985.78;5024616;28;20054;-58
2022/01/23 05:28:56;;;;;;;41.15;24.30;;;;;;;5.63;77.45;102978.91;5053701;28;20049;-61
2022/01/23 05:31:23;;;;;;;39.70;24.25;;;;;;;5.64;77.04;102993.41;5037378;28;20049;-60
2022/01/23 05:33:50;;;;;;;45.35;26.08;;;;;;;5.51;77.29;103001.72;5038530;28;20732;-62
2022/01/23 05:36:20;;;;;;;45.88;26.13;;;;;;;5.26;78.13;102992.72;5039950;28;20056;-61
2022/01/23 05:38:47;;;;;;;41.17;25.10;;;;;;;5.03;78.89;102987.84;5041876;28;20053;-61
2022/01/23 05:41:15;;;;;;;41.88;24.75;;;;;;;4.88;79.94;102992.78;5031537;28;20504;-61
2022/01/23 05:43:42;;;;;;;42.85;25.35;;;;;;;5.14;80.15;102989.88;5042289;28;20050;-60
2022/01/23 05:46:10;;;;;;;41.08;24.80;;;;;;;5.23;79.05;102994.00;5020579;28;20072;-60
2022/01/23 05:48:54;;;;;;;43.30;26.02;;;;;;;5.12;80.09;102991.16;5022955;28;20050;-61
2022/01/23 05:51:56;;;;;;;41.20;24.48;;;;;;;5.37;79.00;102984.63;5042056;28;20053;-60
2022/01/23 05:54:56;;;;;;;45.85;26.33;;;;;;;5.60;78.34;102993.03;5041189;28;20046;-59
2022/01/23 05:57:46;;;;;;;40.65;23.92;;;;;;;5.66;77.29;102994.88;5059335;28;20057;-62
2022/01/23 06:00:19;;;;;;;41.83;24.60;;;;;;;5.68;76.95;102994.66;5037146;28;20057;-60
2022/01/23 06:02:53;;;;;;;35.88;22.95;;;;;;;5.59;76.88;102993.25;5038068;28;20057;-61
2022/01/23 06:05:30;;;;;;;39.95;23.30;;;;;;;5.36;77.47;102988.44;5048605;28;20056;-61
2022/01/23 06:08:03;;;;;;;38.22;23.17;;;;;;;5.33;77.50;102991.63;5035668;28;20531;-60
2022/01/23 06:10:46;;;;;;;39.92;22.77;;;;;;;5.25;77.48;103004.69;5049340;28;20056;-62
2022/01/23 06:13:14;;;;;;;37.33;22.17;;;;;;;5.33;77.58;103002.53;5036570;28;20421;-57
2022/01/23 06:15:41;;;;;;;36.85;22.77;;;;;;;5.25;77.29;103001.97;5053369;28;20368;-60
2022/01/23 06:18:09;;;;;;;40.20;22.63;;;;;;;5.30;77.47;103007.63;5047510;28;20057;-58
2022/01/23 06:21:06;;;;;;;37.03;21.70;;;;;;;5.38;77.05;102999.13;5037479;28;20057;-61
2022/01/23 06:24:22;;;;;;;36.03;22.23;;;;;;;5.34;76.88;103012.41;5034232;28;20060;-61
2022/01/23 06:26:58;;;;;;;34.90;21.15;;;;;;;5.23;77.81;102991.25;5037772;28;20200;-62
2022/01/23 06:29:30;;;;;;;35.78;22.05;;;;;;;5.27;77.37;102989.75;5042903;28;20060;-61
2022/01/23 06:32:00;;;;;;;35.88;21.45;;;;;;;5.33;77.43;102994.34;5058153;28;20045;-62
2022/01/23 06:34:29;;;;;;;37.55;21.52;;;;;;;5.43;77.45;102994.66;5053040;28;20052;-61
2022/01/23 06:36:57;;;;;;;35.65;20.85;;;;;;;5.48;77.22;102994.84;5030436;28;20401;-61
2022/01/23 06:39:25;;;;;;;36.58;21.17;;;;;;;5.43;77.32;102999.28;5037623;28;20060;-60
2022/01/23 06:41:58;;;;;;;34.47;20.08;;;;;;;5.22;77.20;103002.41;5047083;28;20535;-61
2022/01/23 06:44:40;;;;;;;30.63;18.85;;;;;;;5.12;78.18;103004.81;5035796;28;20061;-58
2022/01/23 06:47:15;;;;;;;34.97;19.63;;;;;;;5.18;78.03;102996.56;5043762;28;20048;-59
2022/01/23 06:49:43;;;;;;;30.00;18.65;;;;;;;5.35;77.41;102999.59;5031068;28;20057;-60
2022/01/23 06:52:13;;;;;;;30.45;18.40;;;;;;;5.29;77.40;102990.38;5047152;28;20514;-59
2022/01/23 06:54:45;;;;;;;31.10;18.35;;;;;;;5.48;77.11;102999.44;5032588;28;20438;-63
2022/01/23 06:57:13;;;;;;;30.48;17.48;;;;;;;5.40;76.68;103002.47;5051541;28;20056;-59
2022/01/23 06:59:41;;;;;;;28.42;17.15;;;;;;;5.44;76.56;103003.72;5070939;28;20052;-59
2022/01/23 07:02:25;;;;;;;32.40;17.60;;;;;;;5.21;77.18;103011.69;5042449;28;20559;-61
2022/01/23 07:05:18;;;;;;;28.10;16.63;;;;;;;5.21;77.33;103012.50;5060900;28;20053;-60
2022/01/23 07:07:57;;;;;;;30.73;15.73;;;;;;;5.21;77.02;103012.50;5044399;28;20057;-61
2022/01/23 07:10:57;;;;;;;29.55;15.77;;;;;;;5.32;76.76;103005.47;5032939;28;20408;-60
2022/01/23 07:13:43;;;;;;;24.58;15.43;;;;;;;5.32;76.35;103022.72;5033388;28;20057;-59
2022/01/23 07:16:16;;;;;;;24.20;14.80;;;;;;;5.31;76.14;103009.28;5048853;28;20199;-60
2022/01/23 07:18:56;;;;;;;25.50;14.57;;;;;;;5.15;76.70;103007.09;5035879;28;20041;-63
2022/01/23 07:21:27;;;;;;;24.73;14.55;;;;;;;5.23;76.71;103013.13;5037330;28;20374;-59
2022/01/23 07:23:55;;;;;;;24.40;14.30;;;;;;;5.33;75.96;103016.22;5036467;28;20052;-61
2022/01/23 07:26:25;;;;;;;21.80;13.20;;;;;;;5.28;75.52;103017.94;5035030;28;20052;-59
2022/01/23 07:29:01;;;;;;;20.35;12.30;;;;;;;5.04;76.35;103014.09;5044335;28;20071;-60
2022/01/23 07:34:10;;;;;;;21.42;12.85;;;;;;;4.98;76.92;103012.25;5034947;28;20046;-61
2022/01/23 07:36:38;;;;;;;20.08;12.65;;;;;;;5.12;76.04;103018.47;5034774;28;20512;-58
2022/01/23 07:39:41;;;;;;;21.77;12.55;;;;;;;5.27;76.43;103010.78;5059110;28;20049;-60
2022/01/23 07:42:16;;;;;;;20.85;13.05;;;;;;;5.30;75.97;103007.63;5067279;28;20049;-59
2022/01/23 07:45:10;;;;;;;22.73;13.05;;;;;;;5.27;76.16;103008.88;5047111;28;20060;-63
2022/01/23 07:47:56;;;;;;;25.33;13.65;;;;;;;5.14;76.73;103006.28;5025512;28;20045;-58
2022/01/23 07:50:41;;;;;;;22.20;14.88;;;;;;;5.18;76.89;103014.84;5038122;28;20052;-59
2022/01/23 07:53:34;;;;;;;29.98;17.90;;;;;;;5.19;77.21;103003.72;5034996;28;20045;-60
2022/01/23 07:56:07;;;;;;;25.58;15.18;;;;;;;5.27;77.08;103008.03;5041520;28;20049;-60
2022/01/23 07:58:59;;;;;;;23.50;14.65;;;;;;;5.35;76.47;103010.53;5056190;28;20076;-60
2022/01/23 08:01:39;;;;;;;21.60;13.07;;;;;;;5.33;76.27;103012.63;5035878;28;20065;-58
2022/01/23 08:04:25;;;;;;;24.42;14.77;;;;;;;5.27;76.02;103024.44;5053211;28;20064;-61
2022/01/23 08:07:08;;;;;;;22.70;13.50;;;;;;;5.22;76.03;103029.72;5067062;28;20564;-60
2022/01/23 08:10:03;;;;;;;20.05;13.32;;;;;;;5.32;76.45;103035.53;5043347;28;20056;-60
2022/01/23 08:12:31;;;;;;;22.85;12.98;;;;;;;5.32;75.70;103039.09;5041100;28;20049;-60
2022/01/23 08:15:00;;;;;;;19.33;12.57;;;;;;;5.35;74.66;103046.03;5043129;28;20049;-60
2022/01/23 08:17:31;;;;;;;20.60;12.82;;;;;;;5.39;75.27;103039.03;5032583;28;20052;-59
2022/01/23 08:20:00;;;;;;;21.33;13.05;;;;;;;5.19;74.99;103047.41;5035512;28;20041;-58
2022/01/23 08:22:29;;;;;;;20.98;12.82;;;;;;;5.27;74.88;103052.59;5045341;28;20354;-62
2022/01/23 08:24:57;;;;;;;22.33;12.63;;;;;;;5.22;75.14;103043.38;5046351;28;20534;-60
2022/01/23 08:27:25;;;;;;;22.45;13.77;;;;;;;5.38;74.67;103049.16;5034443;28;20385;-60
2022/01/23 08:29:59;;;;;;;21.90;13.00;;;;;;;5.24;74.65;103049.47;5066367;28;20068;-61
2022/01/23 08:32:27;;;;;;;23.17;13.75;;;;;;;5.25;75.32;103053.88;5039317;28;20060;-60
2022/01/23 08:34:54;;;;;;;23.15;14.02;;;;;;;5.43;74.70;103048.47;5028801;28;20068;-61
2022/01/23 08:37:22;;;;;;;31.52;18.65;;;;;;;5.36;74.90;103051.28;5035163;28;20049;-61
2022/01/23 08:39:49;;;;;;;23.25;14.63;;;;;;;5.41;74.23;103059.66;5039614;28;20052;-59
2022/01/23 08:42:17;;;;;;;26.50;15.18;;;;;;;5.59;74.40;103053.41;5055394;28;20046;-60
2022/01/23 08:44:46;;;;;;;27.60;16.17;;;;;;;5.47;74.44;103049.72;5052687;28;20045;-60
2022/01/23 08:47:13;;;;;;;27.30;15.73;;;;;;;5.19;74.99;103050.16;5044828;28;20044;-59
2022/01/23 08:49:48;;;;;;;25.08;15.45;;;;;;;5.22;75.30;103052.44;5027082;28;20049;-60
2022/01/23 08:52:19;;;;;;;27.42;16.40;;;;;;;5.19;75.37;103047.41;5015729;28;20050;-59
2022/01/23 08:54:50;;;;;;;29.58;16.00;;;;;;;5.39;75.15;103044.50;5019348;28;20045;-59
2022/01/23 08:57:19;;;;;;;25.83;16.00;;;;;;;5.34;75.38;103044.34;5020436;28;20058;-60
2022/01/23 08:59:46;;;;;;;32.50;18.20;;;;;;;5.51;74.17;103048.19;5062032;28;20053;-61
2022/01/23 09:02:14;;;;;;;26.85;16.77;;;;;;;5.47;74.94;103045.06;5044160;28;20358;-61
2022/01/23 09:04:45;;;;;;;23.80;15.73;;;;;;;5.32;75.30;103055.50;5032412;28;20049;-60
2022/01/23 09:07:13;;;;;;;24.88;14.57;;;;;;;5.44;75.01;103059.19;5034198;28;20549;-60
2022/01/23 09:09:41;;;;;;;22.85;14.48;;;;;;;5.23;75.33;103043.16;5029752;28;20112;-61
2022/01/23 09:14:49;;;;;;;24.50;13.93;;;;;;;5.02;75.95;103056.38;5018411;28;20045;-59
2022/01/23 09:17:17;;;;;;;22.10;13.93;;;;;;;4.94;75.97;103056.59;5033192;28;20507;-62
2022/01/23 09:19:50;;;;;;;22.50;13.40;;;;;;;4.99;76.26;103056.78;5029249;28;20061;-60
2022/01/23 09:22:17;;;;;;;25.00;14.45;;;;;;;4.86;76.60;103055.00;5018774;28;20049;-62
2022/01/23 09:24:45;;;;;;;23.65;14.27;;;;;;;5.12;76.56;103048.50;5030247;28;20049;-59
2022/01/23 09:27:19;;;;;;;25.05;15.30;;;;;;;5.12;76.17;103046.63;5017638;28;20045;-60
2022/01/23 09:29:50;;;;;;;25.23;14.57;;;;;;;5.06;76.59;103061.16;5057847;28;20072;-61
2022/01/23 09:32:20;;;;;;;25.55;15.27;;;;;;;5.16;76.48;103049.75;5016261;28;21129;-59
2022/01/23 09:34:51;;;;;;;27.73;14.68;;;;;;;5.08;76.47;103050.84;5031301;28;20049;-61
2022/01/23 09:37:20;;;;;;;26.35;14.90;;;;;;;5.29;76.78;103063.31;5021818;28;20045;-62
2022/01/23 09:39:51;;;;;;;26.73;15.15;;;;;;;5.40;75.65;103054.41;5023744;28;20045;-60
2022/01/23 09:42:26;;;;;;;25.20;15.20;;;;;;;5.31;76.00;103062.03;5024057;28;20055;-60
2022/01/23 09:45:08;;;;;;;31.67;16.35;;;;;;;5.35;76.12;103062.44;5021330;28;20058;-60
2022/01/23 09:47:38;;;;;;;28.73;16.20;;;;;;;5.31;76.88;103066.66;5024925;28;20044;-61
2022/01/23 09:50:08;;;;;;;24.90;14.07;;;;;;;5.26;76.12;103070.06;5016895;28;20041;-59
2022/01/23 09:52:36;;;;;;;24.20;14.35;;;;;;;5.23;76.10;103056.00;5014714;28;20042;-62
2022/01/23 09:55:09;;;;;;;25.00;15.05;;;;;;;5.08;77.08;103058.19;5039179;28;20054;-61
2022/01/23 09:57:39;;;;;;;25.70;15.45;;;;;;;5.09;76.69;103060.69;5019925;28;20614;-60
2022/01/23 10:00:18;;;;;;;22.80;14.13;;;;;;;5.16;78.03;103057.94;5026780;28;20050;-60
2022/01/23 10:02:47;;;;;;;22.90;13.30;;;;;;;5.46;77.85;103061.69;5021089;28;20054;-60
2022/01/23 10:05:14;;;;;;;23.35;13.50;;;;;;;5.51;76.12;103059.97;5024918;28;20054;-58
2022/01/23 10:07:43;;;;;;;18.70;11.65;;;;;;;5.30;74.91;103057.63;5018579;28;20052;-58
2022/01/23 10:10:20;;;;;;;19.02;11.00;;;;;;;5.49;75.78;103061.28;5017690;28;20373;-59
2022/01/23 10:12:50;;;;;;;19.23;10.68;;;;;;;6.03;73.04;103063.31;5029469;28;20052;-60
2022/01/23 10:15:18;;;;;;;18.42;11.55;;;;;;;5.94;72.43;103065.53;5032016;28;20079;-62
2022/01/23 10:17:46;;;;;;;20.30;12.55;;;;;;;6.00;72.04;103072.00;5043778;28;20499;-62
2022/01/23 10:20:14;;;;;;;20.15;11.18;;;;;;;5.94;72.58;103073.72;5026281;28;20215;-62
2022/01/23 10:22:45;;;;;;;17.33;10.90;;;;;;;6.02;72.56;103076.16;5028718;28;20061;-65
2022/01/23 10:25:15;;;;;;;20.20;12.63;;;;;;;6.11;72.42;103069.34;5029472;28;20040;-60
2022/01/23 10:27:52;;;;;;;20.77;11.75;;;;;;;5.93;72.61;103071.22;5040376;28;20041;-60
2022/01/23 10:30:21;;;;;;;19.02;11.20;;;;;;;6.01;72.54;103069.03;5034756;28;20053;-62
2022/01/23 10:32:59;;;;;;;18.40;11.07;;;;;;;5.64;73.13;103064.50;5021639;28;20053;-62
2022/01/23 10:35:26;;;;;;;20.00;10.93;;;;;;;5.66;74.83;103065.13;5017555;28;20551;-63
2022/01/23 10:37:55;;;;;;;18.02;10.98;;;;;;;5.83;73.83;103068.13;5025829;28;20061;-61
2022/01/23 10:40:23;;;;;;;17.42;11.18;;;;;;;5.94;73.23;103061.94;5017344;28;20400;-63
2022/01/23 10:48:35;;;;;;;20.52;11.70;;;;;;;5.91;73.17;103056.94;5056158;28;20049;-61
2022/01/23 10:51:22;;;;;;;16.35;10.68;;;;;;;5.97;73.45;103045.06;5025883;28;20068;-61
2022/01/23 10:53:59;;;;;;;18.98;11.05;;;;;;;5.84;73.36;103054.22;5021883;28;20062;-62
2022/01/23 10:56:29;;;;;;;18.75;10.68;;;;;;;5.86;73.90;103043.91;5048551;28;20061;-62
2022/01/23 10:59:11;;;;;;;19.05;10.60;;;;;;;5.99;73.59;103045.69;5031897;28;20049;-61
2022/01/23 11:02:07;;;;;;;20.25;10.18;;;;;;;5.74;73.85;103043.78;5017264;28;20064;-61
2022/01/23 11:04:55;;;;;;;19.65;10.52;;;;;;;6.03;73.54;103045.03;5025043;28;20052;-62
2022/01/23 11:07:24;;;;;;;18.73;11.05;;;;;;;6.08;73.26;103041.59;5062934;28;20058;-62
2022/01/23 11:09:56;;;;;;;18.35;10.68;;;;;;;5.90;74.21;103036.09;5015655;28;20058;-66
2022/01/23 11:12:46;;;;;;;18.48;10.65;;;;;;;5.79;74.26;103042.28;5016673;28;20050;-62
2022/01/23 11:18:12;;;;;;;18.50;9.65;;;;;;;5.95;74.45;103031.63;5020491;28;20050;-61
2022/01/23 11:20:41;;;;;;;15.65;9.70;;;;;;;5.74;73.56;103032.84;5053556;28;20045;-61
2022/01/23 11:23:14;;;;;;;15.95;9.27;;;;;;;5.86;73.46;103032.97;5025349;28;20049;-59
2022/01/23 11:26:05;;;;;;;18.35;10.15;;;;;;;5.86;72.46;103029.41;5033991;28;20041;-62
2022/01/23 11:28:43;;;;;;;18.63;9.73;;;;;;;5.65;73.30;103020.53;5033671;28;20053;-62
2022/01/23 11:31:16;;;;;;;16.42;9.98;;;;;;;5.63;73.98;103016.38;5030754;28;20049;-63
2022/01/23 11:33:45;;;;;;;18.67;9.70;;;;;;;6.03;73.02;103014.94;5031869;28;20053;-62
2022/01/23 11:36:13;;;;;;;16.77;9.82;;;;;;;5.96;72.79;103014.16;5027981;28;20050;-62
2022/01/23 11:38:44;;;;;;;18.98;10.45;;;;;;;5.96;72.85;103014.16;5052075;28;20046;-62
2022/01/23 11:54:52;;;;;;;19.85;11.55;;;;;;;5.26;75.33;102999.03;5028696;28;20057;-60
2022/01/23 11:57:41;;;;;;;21.58;11.70;;;;;;;5.33;74.85;102988.03;5017434;28;20046;-61
2022/01/23 12:00:11;;;;;;;22.95;13.20;;;;;;;5.41;75.24;102995.94;5035863;28;20072;-61
2022/01/23 12:02:42;;;;;;;22.50;12.27;;;;;;;5.61;75.04;102993.88;5035420;28;20069;-59
2022/01/23 12:05:10;;;;;;;21.27;12.35;;;;;;;5.32;75.42;102984.47;5029339;28;20061;-59
2022/01/23 12:07:39;;;;;;;20.25;10.88;;;;;;;5.33;74.78;102983.41;5056513;28;20061;-61
2022/01/23 12:10:15;;;;;;;23.50;11.85;;;;;;;5.54;74.07;102976.69;5031430;28;20060;-61
2022/01/23 12:12:49;;;;;;;17.80;10.05;;;;;;;5.33;73.53;102977.09;5048100;28;20054;-62
2022/01/23 12:18:22;;;;;;;19.92;9.55;;;;;;;5.14;73.97;102980.84;5045045;28;20041;-62
2022/01/23 12:20:50;;;;;;;17.73;10.23;;;;;;;5.25;73.93;102980.09;5033221;28;20045;-60
2022/01/23 12:23:18;;;;;;;17.92;9.90;;;;;;;5.11;73.91;102959.44;5018447;28;20053;-60
2022/01/23 12:25:47;;;;;;;21.98;12.20;;;;;;;5.25;74.57;102960.97;5059529;28;20060;-61
2022/01/23 12:28:17;;;;;;;21.02;10.10;;;;;;;5.28;74.00;102966.81;5027832;28;20037;-63
2022/01/23 12:30:45;;;;;;;19.88;9.88;;;;;;;5.34;73.59;102960.47;5035252;28;20506;-62
2022/01/23 12:33:39;;;;;;;16.33;9.40;;;;;;;5.42;73.04;102953.91;5054928;28;20067;-61
2022/01/23 12:36:12;;;;;;;15.55;8.98;;;;;;;5.35;73.34;102951.22;5022599;28;20042;-63
2022/01/23 12:38:43;;;;;;;18.17;9.90;;;;;;;5.44;72.97;102949.06;5027550;28;20042;-61
2022/01/23 12:41:23;;;;;;;18.08;10.40;;;;;;;5.38;73.14;102942.59;5018642;28;20057;-62
2022/01/23 12:43:57;;;;;;;20.63;11.03;;;;;;;5.40;73.16;102939.63;5032988;28;20049;-62
2022/01/23 12:46:41;;;;;;;23.52;12.23;;;;;;;5.64;72.99;102930.53;5047052;28;20053;-62
2022/01/23 12:49:22;;;;;;;21.52;12.10;;;;;;;5.55;73.10;102932.75;5031779;28;20053;-62
2022/01/23 12:52:10;;;;;;;23.33;12.55;;;;;;;5.47;73.72;102924.81;5025966;28;20049;-61
2022/01/23 12:54:46;;;;;;;26.20;13.93;;;;;;;5.56;73.80;102915.25;5016723;28;20054;-63
2022/01/23 12:57:33;;;;;;;21.58;12.65;;;;;;;5.57;73.18;102919.69;5052144;28;20045;-63
2022/01/23 13:00:11;;;;;;;21.00;12.20;;;;;;;5.77;72.92;102915.88;5054468;28;20677;-61
2022/01/23 13:02:46;;;;;;;21.65;11.82;;;;;;;5.74;72.05;102912.53;5023332;28;20129;-62
2022/01/23 13:05:16;;;;;;;22.80;11.68;;;;;;;5.72;71.81;102906.47;5016523;28;20061;-63
2022/01/23 13:08:22;;;;;;;22.40;11.45;;;;;;;5.64;72.26;102906.78;5026632;28;20057;-61
2022/01/23 13:13:37;;;;;;;23.90;13.50;;;;;;;5.41;73.64;102906.59;5022763;28;20456;-60
2022/01/23 13:19:04;;;;;;;24.00;12.73;;;;;;;5.49;73.40;102900.81;5018159;28;20050;-62
2022/01/23 13:26:28;;;;;;;23.95;12.65;;;;;;;5.42;74.00;102889.13;5036523;28;20049;-63
2022/01/23 13:30:26;;;;;;;24.77;13.43;;;;;;;5.56;74.24;102876.19;5019952;28;20532;-62
2022/01/23 13:33:10;;;;;;;25.13;13.70;;;;;;;5.63;73.78;102874.22;5022341;28;20045;-63
2022/01/23 13:35:41;;;;;;;25.00;14.73;;;;;;;5.61;74.06;102877.13;5034330;28;20393;-63
2022/01/23 13:38:18;;;;;;;26.52;14.13;;;;;;;5.60;73.72;102875.47;5033854;28;20049;-62
2022/01/23 13:40:56;;;;;;;27.63;14.73;;;;;;;5.96;72.83;102871.94;5017177;28;20050;-61
2022/01/23 13:57:37;;;;;;;26.80;14.13;;;;;;;5.91;72.35;102846.34;5040896;28;20046;-62
2022/01/23 14:02:34;;;;;;;28.75;14.07;;;;;;;5.65;74.01;102836.50;5037295;28;20068;-61
2022/01/23 14:05:18;;;;;;;34.58;19.35;;;;;;;5.68;73.40;102838.81;5036164;28;20053;-60
2022/01/23 14:07:49;;;;;;;27.45;14.32;;;;;;;5.63;73.20;102844.13;5036527;28;20061;-62
2022/01/23 14:10:35;;;;;;;26.42;13.98;;;;;;;5.50;73.81;102833.34;5052713;28;20608;-62
2022/01/23 14:13:05;;;;;;;27.05;13.77;;;;;;;5.51;74.32;102835.00;5036408;28;20064;-61
2022/01/23 14:15:32;;;;;;;27.25;14.10;;;;;;;5.55;74.23;102834.34;5020490;28;20452;-62
2022/01/23 14:18:07;;;;;;;27.05;15.52;;;;;;;5.54;73.90;102821.72;5019430;28;20417;-62
2022/01/23 14:20:43;;;;;;;28.17;15.00;;;;;;;5.53;74.23;102822.78;5018608;28;20054;-62
2022/01/23 14:23:15;;;;;;;26.33;14.63;;;;;;;5.58;74.33;102822.09;5017664;28;20050;-63
2022/01/23 14:25:49;;;;;;;28.38;15.13;;;;;;;5.75;74.05;102820.44;5017744;28;20050;-63
2022/01/23 14:28:21;;;;;;;27.55;15.23;;;;;;;5.65;73.71;102820.13;5049092;28;20061;-62
2022/01/23 14:30:53;;;;;;;27.83;15.10;;;;;;;5.69;74.15;102813.97;5057809;28;20088;-62
2022/01/23 14:33:28;;;;;;;30.33;15.93;;;;;;;5.90;73.46;102818.13;5032300;28;20056;-63
2022/01/23 14:36:17;;;;;;;28.77;15.00;;;;;;;5.88;73.07;102813.94;5043247;28;20041;-62
2022/01/23 14:38:58;;;;;;;31.15;15.43;;;;;;;5.75;72.92;102815.78;5037224;28;20053;-63
2022/01/23 14:41:30;;;;;;;28.33;15.82;;;;;;;5.64;73.73;102818.44;5037197;28;20045;-60
2022/01/23 14:43:58;;;;;;;26.30;14.73;;;;;;;5.57;74.00;102818.53;5037046;28;20053;-62
2022/01/23 14:46:25;;;;;;;27.30;15.82;;;;;;;5.78;73.29;102816.38;5040056;28;20050;-63
2022/01/23 14:48:59;;;;;;;30.58;15.05;;;;;;;5.86;72.54;102805.97;5033006;28;20057;-63